createdAt,value
2017-05-27T00:01:09.870Z,101832.37
2017-05-27T00:03:36.929Z,101827.84
2017-05-27T00:06:09.777Z,101825.64
2017-05-27T00:08:36.104Z,101829.25
2017-05-27T00:11:03.009Z,101825.69
2017-05-27T00:13:29.174Z,101824.83
2017-05-27T00:15:55.326Z,101823.05
2017-05-27T00:18:21.535Z,101824.83
2017-05-27T00:35:30.068Z,101827.23
2017-05-27T00:37:56.374Z,101823.24
2017-05-27T00:50:08.508Z,101816.06
2017-05-27T00:52:34.761Z,101817.46
2017-05-27T00:55:00.908Z,101818.86
2017-05-27T00:57:27.054Z,101825.98
2017-05-27T00:59:53.271Z,101827.48
2017-05-27T01:02:19.431Z,101835.48
2017-05-27T01:04:45.687Z,101839.09
2017-05-27T01:13:10.718Z,101836.40
2017-05-27T01:15:37.227Z,101835.09
2017-05-27T01:18:03.413Z,101828.89
2017-05-27T01:35:12.575Z,101822.19
2017-05-27T01:37:38.730Z,101820.36
2017-05-27T01:40:05.012Z,101821.77
2017-05-27T01:42:31.191Z,101818.58
2017-05-27T01:44:57.354Z,101809.58
2017-05-27T01:47:23.502Z,101810.48
2017-05-27T01:49:49.747Z,101792.16
2017-05-27T01:55:12.381Z,101799.84
2017-05-27T01:57:38.523Z,101799.03
2017-05-27T02:00:04.756Z,101798.50
2017-05-27T02:02:30.967Z,101797.58
2017-05-27T02:04:57.239Z,101799.56
2017-05-27T02:07:23.428Z,101804.38
2017-05-27T02:09:49.567Z,101803.95
2017-05-27T02:12:15.740Z,101807.17
2017-05-27T02:14:41.970Z,101809.39
2017-05-27T02:17:08.210Z,101817.91
2017-05-27T02:19:34.395Z,101807.05
2017-05-27T02:33:47.302Z,101840.17
2017-05-27T02:45:08.842Z,101843.94
2017-05-27T02:47:35.129Z,101840.80
2017-05-27T02:50:01.286Z,101837.67
2017-05-27T02:52:46.909Z,101836.80
2017-05-27T02:55:13.102Z,101830.98
2017-05-27T02:57:39.254Z,101827.00
2017-05-27T03:00:05.475Z,101829.70
2017-05-27T03:02:31.620Z,101825.66
2017-05-27T03:04:57.895Z,101827.00
2017-05-27T03:17:04.178Z,101832.49
2017-05-27T03:19:30.329Z,101836.16
2017-05-27T03:31:56.869Z,101829.03
2017-05-27T03:34:23.047Z,101818.72
2017-05-27T03:51:32.417Z,101804.72
2017-05-27T03:53:58.661Z,101811.41
2017-05-27T03:56:24.848Z,101821.91
2017-05-27T03:58:51.029Z,101816.13
2017-05-27T04:01:17.275Z,101819.30
2017-05-27T04:03:43.431Z,101814.39
2017-05-27T04:12:02.943Z,101809.91
2017-05-27T04:14:29.199Z,101804.62
2017-05-27T04:16:55.545Z,101812.38
2017-05-27T04:19:21.733Z,101809.63
2017-05-27T04:33:36.233Z,101812.09
2017-05-27T04:36:02.447Z,101808.96
2017-05-27T04:53:11.167Z,101800.48
2017-05-27T04:55:37.329Z,101800.92
2017-05-27T04:58:03.514Z,101804.44
2017-05-27T05:00:29.808Z,101800.54
2017-05-27T05:02:56.081Z,101802.84
2017-05-27T05:05:22.263Z,101805.50
2017-05-27T05:13:41.509Z,101810.45
2017-05-27T05:16:07.701Z,101814.89
2017-05-27T05:18:33.850Z,101819.94
2017-05-27T05:21:00.037Z,101815.03
2017-05-27T05:32:40.023Z,101806.72
2017-05-27T05:35:06.222Z,101799.48
2017-05-27T05:52:15.324Z,101794.98
2017-05-27T05:54:41.469Z,101785.03
2017-05-27T05:57:07.618Z,101793.59
2017-05-27T05:59:33.841Z,101788.83
2017-05-27T06:01:59.986Z,101792.81
2017-05-27T06:04:26.170Z,101801.47
2017-05-27T06:12:45.346Z,101789.83
2017-05-27T06:15:12.088Z,101790.89
2017-05-27T06:17:38.446Z,101790.21
2017-05-27T06:20:04.581Z,101787.14
2017-05-27T06:31:49.587Z,101771.88
2017-05-27T06:34:16.006Z,101780.06
2017-05-27T06:51:25.002Z,101756.97
2017-05-27T07:11:30.410Z,101755.80
2017-05-27T07:13:56.766Z,101749.01
2017-05-27T07:16:22.918Z,101750.89
2017-05-27T07:18:49.895Z,101754.73
2017-05-27T07:21:16.063Z,101761.42
2017-05-27T07:32:31.665Z,101759.03
2017-05-27T07:53:27.541Z,101746.51
2017-05-27T07:55:53.740Z,101744.09
2017-05-27T07:58:19.911Z,101732.72
2017-05-27T08:00:46.098Z,101732.63
2017-05-27T08:03:12.255Z,101732.52
2017-05-27T08:05:38.469Z,101723.51
2017-05-27T08:13:57.997Z,101716.73
2017-05-27T08:16:24.250Z,101711.67
2017-05-27T08:18:50.441Z,101716.53
2017-05-27T08:21:16.623Z,101711.90
2017-05-27T08:35:29.203Z,101693.45
2017-05-27T08:55:34.404Z,101675.23
2017-05-27T08:58:00.669Z,101675.17
2017-05-27T09:00:26.858Z,101673.72
2017-05-27T09:02:53.021Z,101664.71
2017-05-27T09:14:59.238Z,101660.47
2017-05-27T09:17:25.502Z,101660.84
2017-05-27T09:19:51.686Z,101655.83
2017-05-27T09:22:17.845Z,101655.34
2017-05-27T09:33:57.440Z,101639.20
2017-05-27T09:36:23.630Z,101639.20
2017-05-27T09:54:22.998Z,101639.27
2017-05-27T09:56:49.216Z,101639.16
2017-05-27T09:59:15.430Z,101645.37
2017-05-27T10:01:41.617Z,101643.64
2017-05-27T10:04:07.802Z,101651.63
2017-05-27T10:06:34.053Z,101646.59
2017-05-27T10:14:53.338Z,101651.66
2017-05-27T10:17:19.485Z,101657.06
2017-05-27T10:19:47.639Z,101655.61
2017-05-27T10:22:13.961Z,101656.90
2017-05-27T10:33:58.269Z,101652.58
2017-05-27T10:36:24.501Z,101647.51
2017-05-27T10:53:33.615Z,101633.52
2017-05-27T10:56:00.005Z,101631.68
2017-05-27T10:58:26.304Z,101635.67
2017-05-27T11:00:52.519Z,101635.22
2017-05-27T11:03:18.856Z,101630.69
2017-05-27T11:05:45.118Z,101627.39
2017-05-27T11:08:11.257Z,101622.48
2017-05-27T11:20:17.501Z,101616.53
2017-05-27T11:22:43.653Z,101621.88
2017-05-27T11:25:14.920Z,101610.10
2017-05-27T11:27:41.177Z,101610.33
2017-05-27T11:30:07.333Z,101615.99
2017-05-27T11:32:33.519Z,101604.16
2017-05-27T11:34:59.679Z,101617.50
2017-05-27T11:37:26.027Z,101617.39
2017-05-27T11:51:38.322Z,101572.48
2017-05-27T12:11:43.690Z,101587.88
2017-05-27T12:14:09.959Z,101600.44
2017-05-27T12:16:36.134Z,101587.36
2017-05-27T12:19:02.294Z,101577.80
2017-05-27T12:21:28.443Z,101584.50
2017-05-27T12:32:44.021Z,101587.81
2017-05-27T12:35:10.206Z,101581.44
2017-05-27T12:37:36.543Z,101574.69
2017-05-27T12:51:48.794Z,101572.39
2017-05-27T12:57:17.463Z,101572.34
2017-05-27T12:59:43.749Z,101581.25
2017-05-27T13:02:10.001Z,101571.25
2017-05-27T13:04:36.194Z,101559.58
2017-05-27T13:07:02.474Z,101559.03
2017-05-27T13:12:25.279Z,101564.75
2017-05-27T13:14:51.534Z,101561.59
2017-05-27T13:17:17.788Z,101556.63
2017-05-27T13:19:45.086Z,101563.75
2017-05-27T13:22:11.339Z,101557.42
2017-05-27T13:33:28.233Z,101541.59
2017-05-27T13:35:54.405Z,101541.53
2017-05-27T13:38:20.659Z,101540.98
2017-05-27T13:52:32.782Z,101533.72
2017-05-27T14:12:39.914Z,101519.00
2017-05-27T14:15:06.182Z,101521.03
2017-05-27T14:17:32.409Z,101518.33
2017-05-27T14:19:58.562Z,101518.16
2017-05-27T14:22:25.011Z,101515.70
2017-05-27T14:33:40.784Z,101520.30
2017-05-27T14:36:07.066Z,101523.29
2017-05-27T14:38:33.250Z,101514.14
2017-05-27T14:52:45.692Z,101518.16
2017-05-27T14:55:16.954Z,101526.98
2017-05-27T14:57:43.118Z,101530.81
2017-05-27T15:00:09.393Z,101525.66
2017-05-27T15:02:35.611Z,101520.55
2017-05-27T15:05:03.424Z,101519.27
2017-05-27T15:07:32.598Z,101512.30
2017-05-27T15:12:56.104Z,101519.14
2017-05-27T15:15:22.676Z,101521.52
2017-05-27T15:17:48.825Z,101519.81
2017-05-27T15:20:15.156Z,101516.91
2017-05-27T15:22:41.575Z,101512.17
2017-05-27T15:33:57.385Z,101509.98
2017-05-27T15:36:23.666Z,101515.40
2017-05-27T15:38:49.861Z,101509.31
2017-05-27T15:44:18.449Z,101515.69
2017-05-27T15:46:44.739Z,101516.27
2017-05-27T15:49:10.896Z,101515.29
2017-05-27T15:51:39.029Z,101517.56
2017-05-27T15:54:05.464Z,101520.08
2017-05-27T16:14:15.062Z,101512.06
2017-05-27T16:16:41.336Z,101503.53
2017-05-27T16:19:07.525Z,101521.86
2017-05-27T16:21:33.700Z,101515.69
2017-05-27T16:23:59.862Z,101516.14
2017-05-27T16:35:17.197Z,101572.09
2017-05-27T16:37:43.370Z,101580.27
2017-05-27T16:54:52.025Z,101609.11
2017-05-27T17:00:20.663Z,101610.01
2017-05-27T17:02:46.842Z,101613.06
2017-05-27T17:05:13.122Z,101617.30
2017-05-27T17:07:39.643Z,101613.33
2017-05-27T17:15:59.034Z,101621.36
2017-05-27T17:18:25.185Z,101632.44
2017-05-27T17:20:51.342Z,101634.65
2017-05-27T17:23:17.506Z,101628.08
2017-05-27T17:34:56.549Z,101633.89
2017-05-27T17:37:22.702Z,101633.45
2017-05-27T17:39:48.890Z,101642.27
2017-05-27T17:54:01.353Z,101643.95
2017-05-27T18:05:23.046Z,101643.16
2017-05-27T18:07:49.218Z,101644.95
2017-05-27T18:10:15.665Z,101652.24
2017-05-27T18:22:21.839Z,101677.44
2017-05-27T18:24:48.013Z,101680.75
2017-05-27T18:27:20.198Z,101684.69
2017-05-27T18:29:46.407Z,101682.81
2017-05-27T18:32:12.592Z,101681.58
2017-05-27T18:34:38.890Z,101691.53
2017-05-27T18:37:05.178Z,101694.55
2017-05-27T18:39:31.363Z,101685.45
2017-05-27T18:53:43.595Z,101705.77
2017-05-27T19:13:49.178Z,101730.02
2017-05-27T19:16:15.359Z,101729.20
2017-05-27T19:18:41.549Z,101729.25
2017-05-27T19:21:07.706Z,101736.02
2017-05-27T19:23:33.898Z,101748.55
2017-05-27T19:34:49.640Z,101750.27
2017-05-27T19:37:15.908Z,101752.91
2017-05-27T19:39:42.815Z,101756.59
2017-05-27T19:53:56.941Z,101774.84
2017-05-27T20:02:22.285Z,101792.31
2017-05-27T20:04:48.451Z,101792.13
2017-05-27T20:07:14.634Z,101792.89
2017-05-27T20:09:40.797Z,101797.27
2017-05-27T20:15:03.440Z,101811.70
2017-05-27T20:17:29.686Z,101818.86
2017-05-27T20:19:55.957Z,101819.78
2017-05-27T20:22:22.179Z,101822.91
2017-05-27T20:24:48.355Z,101821.20
2017-05-27T20:27:20.382Z,101815.95
2017-05-27T20:29:46.584Z,101820.34
2017-05-27T20:32:12.824Z,101822.12
2017-05-27T20:34:39.022Z,101827.63
2017-05-27T20:37:05.232Z,101827.05
2017-05-27T20:39:31.399Z,101835.07
2017-05-27T20:53:43.522Z,101827.56
2017-05-27T21:13:50.323Z,101821.08
2017-05-27T21:16:16.486Z,101829.14
2017-05-27T21:18:42.677Z,101817.90
2017-05-27T21:21:08.904Z,101825.47
2017-05-27T21:23:35.100Z,101821.36
2017-05-27T21:26:01.298Z,101818.77
2017-05-27T21:34:20.695Z,101814.98
2017-05-27T21:36:46.982Z,101806.82
2017-05-27T21:39:13.166Z,101809.52
2017-05-27T21:53:25.469Z,101801.80
2017-05-27T21:55:51.689Z,101810.39
2017-05-27T21:58:23.950Z,101808.17
2017-05-27T22:00:50.117Z,101813.95
2017-05-27T22:03:16.349Z,101802.93
2017-05-27T22:05:42.500Z,101806.34
2017-05-27T22:08:08.686Z,101816.23
2017-05-27T22:23:24.986Z,101822.77
2017-05-27T22:25:51.227Z,101813.36
2017-05-27T22:34:10.566Z,101820.55
2017-05-27T22:36:36.810Z,101827.68
2017-05-27T22:39:03.026Z,101820.06
2017-05-27T22:47:28.119Z,101823.68
2017-05-27T22:49:54.350Z,101823.84
2017-05-27T22:52:21.316Z,101837.67
2017-05-27T22:54:48.248Z,101833.63
2017-05-27T23:14:57.351Z,101863.98
2017-05-27T23:17:23.546Z,101863.13
2017-05-27T23:19:49.782Z,101871.23
2017-05-27T23:22:16.005Z,101863.45
2017-05-27T23:24:42.354Z,101866.64
2017-05-27T23:35:58.089Z,101865.67
2017-05-27T23:38:24.341Z,101868.80
2017-05-27T23:40:50.605Z,101860.75
2017-05-27T23:55:05.353Z,101866.16
